sensor_id;sensor_type;location;lat;lon;timestamp;P1;durP1;ratioP1;P2;durP2;ratioP2
73642;SDS011;61938;48.652;9.292;2023-07-13T00:02:00;2.95;;;1.70;;
73642;SDS011;61938;48.652;9.292;2023-07-13T00:04:26;7.45;;;1.80;;
73642;SDS011;61938;48.652;9.292;2023-07-13T00:06:52;6.90;;;1.98;;
73642;SDS011;61938;48.652;9.292;2023-07-13T00:09:18;2.40;;;1.63;;
73642;SDS011;61938;48.652;9.292;2023-07-13T00:11:44;7.65;;;1.85;;
73642;SDS011;61938;48.652;9.292;2023-07-13T00:14:14;9.13;;;2.22;;
73642;SDS011;61938;48.652;9.292;2023-07-13T00:16:41;4.35;;;1.90;;
73642;SDS011;61938;48.652;9.292;2023-07-13T00:19:08;4.40;;;2.38;;
73642;SDS011;61938;48.652;9.292;2023-07-13T00:21:35;5.03;;;1.83;;
73642;SDS011;61938;48.652;9.292;2023-07-13T00:24:00;4.78;;;2.05;;
73642;SDS011;61938;48.652;9.292;2023-07-13T00:26:26;10.52;;;1.85;;
73642;SDS011;61938;48.652;9.292;2023-07-13T00:28:52;3.00;;;1.55;;
73642;SDS011;61938;48.652;9.292;2023-07-13T00:31:17;2.60;;;1.73;;
73642;SDS011;61938;48.652;9.292;2023-07-13T00:33:43;4.95;;;1.85;;
73642;SDS011;61938;48.652;9.292;2023-07-13T00:36:09;6.10;;;1.98;;
73642;SDS011;61938;48.652;9.292;2023-07-13T00:38:36;3.40;;;1.80;;
73642;SDS011;61938;48.652;9.292;2023-07-13T00:41:02;5.32;;;1.60;;
73642;SDS011;61938;48.652;9.292;2023-07-13T00:43:29;5.25;;;1.65;;
73642;SDS011;61938;48.652;9.292;2023-07-13T00:48:21;6.25;;;1.92;;
73642;SDS011;61938;48.652;9.292;2023-07-13T00:50:54;4.65;;;1.67;;
73642;SDS011;61938;48.652;9.292;2023-07-13T00:53:22;3.80;;;1.95;;
73642;SDS011;61938;48.652;9.292;2023-07-13T00:55:49;8.23;;;2.05;;
73642;SDS011;61938;48.652;9.292;2023-07-13T00:58:16;3.25;;;1.40;;
73642;SDS011;61938;48.652;9.292;2023-07-13T01:00:42;3.38;;;2.00;;
73642;SDS011;61938;48.652;9.292;2023-07-13T01:03:07;5.47;;;1.92;;
73642;SDS011;61938;48.652;9.292;2023-07-13T01:05:33;4.97;;;1.80;;
73642;SDS011;61938;48.652;9.292;2023-07-13T01:08:00;5.50;;;2.10;;
73642;SDS011;61938;48.652;9.292;2023-07-13T01:10:27;3.40;;;1.30;;
73642;SDS011;61938;48.652;9.292;2023-07-13T01:12:53;5.18;;;1.60;;
73642;SDS011;61938;48.652;9.292;2023-07-13T01:18:20;5.60;;;1.40;;
73642;SDS011;61938;48.652;9.292;2023-07-13T01:20:52;5.47;;;1.83;;
73642;SDS011;61938;48.652;9.292;2023-07-13T01:23:23;12.90;;;2.33;;
73642;SDS011;61938;48.652;9.292;2023-07-13T01:25:49;6.65;;;1.83;;
73642;SDS011;61938;48.652;9.292;2023-07-13T01:28:16;5.82;;;2.10;;
73642;SDS011;61938;48.652;9.292;2023-07-13T01:30:45;4.38;;;1.83;;
73642;SDS011;61938;48.652;9.292;2023-07-13T01:33:12;3.60;;;2.00;;
73642;SDS011;61938;48.652;9.292;2023-07-13T01:35:40;3.95;;;1.83;;
73642;SDS011;61938;48.652;9.292;2023-07-13T01:38:06;4.35;;;1.88;;
73642;SDS011;61938;48.652;9.292;2023-07-13T01:40:33;7.22;;;2.00;;
73642;SDS011;61938;48.652;9.292;2023-07-13T01:42:59;8.85;;;1.95;;
73642;SDS011;61938;48.652;9.292;2023-07-13T01:45:25;4.65;;;2.30;;
73642;SDS011;61938;48.652;9.292;2023-07-13T01:47:50;4.32;;;2.03;;
73642;SDS011;61938;48.652;9.292;2023-07-13T01:50:16;6.35;;;1.92;;
73642;SDS011;61938;48.652;9.292;2023-07-13T01:52:42;4.53;;;1.52;;
73642;SDS011;61938;48.652;9.292;2023-07-13T01:55:07;7.70;;;1.80;;
73642;SDS011;61938;48.652;9.292;2023-07-13T01:57:33;10.77;;;2.10;;
73642;SDS011;61938;48.652;9.292;2023-07-13T02:00:01;3.70;;;1.90;;
73642;SDS011;61938;48.652;9.292;2023-07-13T02:02:29;7.70;;;2.25;;
73642;SDS011;61938;48.652;9.292;2023-07-13T02:04:55;3.20;;;1.90;;
73642;SDS011;61938;48.652;9.292;2023-07-13T02:07:21;6.60;;;2.20;;
73642;SDS011;61938;48.652;9.292;2023-07-13T02:09:46;3.28;;;1.73;;
73642;SDS011;61938;48.652;9.292;2023-07-13T02:12:12;4.25;;;1.70;;
73642;SDS011;61938;48.652;9.292;2023-07-13T02:14:37;5.32;;;1.80;;
73642;SDS011;61938;48.652;9.292;2023-07-13T02:17:03;4.93;;;1.95;;
73642;SDS011;61938;48.652;9.292;2023-07-13T02:19:29;3.72;;;1.98;;
73642;SDS011;61938;48.652;9.292;2023-07-13T02:21:55;4.65;;;1.92;;
73642;SDS011;61938;48.652;9.292;2023-07-13T02:24:20;6.72;;;1.80;;
73642;SDS011;61938;48.652;9.292;2023-07-13T02:26:46;7.57;;;2.45;;
73642;SDS011;61938;48.652;9.292;2023-07-13T02:29:12;3.97;;;1.75;;
73642;SDS011;61938;48.652;9.292;2023-07-13T02:31:37;6.05;;;2.25;;
73642;SDS011;61938;48.652;9.292;2023-07-13T02:34:03;2.80;;;1.75;;
73642;SDS011;61938;48.652;9.292;2023-07-13T02:36:29;4.35;;;1.75;;
73642;SDS011;61938;48.652;9.292;2023-07-13T02:38:55;2.97;;;1.70;;
73642;SDS011;61938;48.652;9.292;2023-07-13T02:41:20;6.00;;;1.88;;
73642;SDS011;61938;48.652;9.292;2023-07-13T02:43:47;3.20;;;1.70;;
73642;SDS011;61938;48.652;9.292;2023-07-13T02:46:13;3.45;;;1.98;;
73642;SDS011;61938;48.652;9.292;2023-07-13T02:48:39;5.88;;;1.70;;
73642;SDS011;61938;48.652;9.292;2023-07-13T02:51:05;3.83;;;2.00;;
73642;SDS011;61938;48.652;9.292;2023-07-13T02:53:31;4.13;;;1.55;;
73642;SDS011;61938;48.652;9.292;2023-07-13T02:55:57;2.78;;;1.80;;
73642;SDS011;61938;48.652;9.292;2023-07-13T02:58:23;4.28;;;1.95;;
73642;SDS011;61938;48.652;9.292;2023-07-13T03:00:48;3.97;;;2.10;;
73642;SDS011;61938;48.652;9.292;2023-07-13T03:03:15;8.48;;;2.80;;
73642;SDS011;61938;48.652;9.292;2023-07-13T03:05:42;6.88;;;3.00;;
73642;SDS011;61938;48.652;9.292;2023-07-13T03:08:09;13.57;;;3.38;;
73642;SDS011;61938;48.652;9.292;2023-07-13T03:10:36;9.25;;;3.25;;
73642;SDS011;61938;48.652;9.292;2023-07-13T03:13:01;10.35;;;3.63;;
73642;SDS011;61938;48.652;9.292;2023-07-13T03:15:27;9.75;;;3.65;;
73642;SDS011;61938;48.652;9.292;2023-07-13T03:17:52;9.73;;;3.42;;
73642;SDS011;61938;48.652;9.292;2023-07-13T03:20:18;10.10;;;2.85;;
73642;SDS011;61938;48.652;9.292;2023-07-13T03:22:44;6.43;;;2.40;;
73642;SDS011;61938;48.652;9.292;2023-07-13T03:25:10;13.45;;;2.47;;
73642;SDS011;61938;48.652;9.292;2023-07-13T03:27:35;6.32;;;2.17;;
73642;SDS011;61938;48.652;9.292;2023-07-13T03:30:02;8.00;;;2.17;;
73642;SDS011;61938;48.652;9.292;2023-07-13T03:32:28;3.63;;;2.15;;
73642;SDS011;61938;48.652;9.292;2023-07-13T03:34:54;6.18;;;2.00;;
73642;SDS011;61938;48.652;9.292;2023-07-13T03:37:20;4.60;;;1.80;;
73642;SDS011;61938;48.652;9.292;2023-07-13T03:39:46;6.43;;;2.00;;
73642;SDS011;61938;48.652;9.292;2023-07-13T03:42:11;4.03;;;1.83;;
73642;SDS011;61938;48.652;9.292;2023-07-13T03:44:38;8.43;;;2.47;;
73642;SDS011;61938;48.652;9.292;2023-07-13T03:47:04;4.65;;;2.15;;
73642;SDS011;61938;48.652;9.292;2023-07-13T03:49:31;4.93;;;2.15;;
73642;SDS011;61938;48.652;9.292;2023-07-13T03:51:56;4.45;;;2.00;;
73642;SDS011;61938;48.652;9.292;2023-07-13T03:54:22;6.40;;;2.58;;
73642;SDS011;61938;48.652;9.292;2023-07-13T03:56:47;2.72;;;1.83;;
73642;SDS011;61938;48.652;9.292;2023-07-13T03:59:13;6.63;;;2.03;;
73642;SDS011;61938;48.652;9.292;2023-07-13T04:01:38;3.25;;;1.88;;
73642;SDS011;61938;48.652;9.292;2023-07-13T04:04:04;8.55;;;2.47;;
73642;SDS011;61938;48.652;9.292;2023-07-13T04:06:30;7.20;;;2.42;;
73642;SDS011;61938;48.652;9.292;2023-07-13T04:08:56;8.18;;;2.35;;
73642;SDS011;61938;48.652;9.292;2023-07-13T04:11:25;8.30;;;2.25;;
73642;SDS011;61938;48.652;9.292;2023-07-13T04:13:56;5.80;;;2.15;;
73642;SDS011;61938;48.652;9.292;2023-07-13T04:16:21;7.57;;;2.10;;
73642;SDS011;61938;48.652;9.292;2023-07-13T04:18:47;6.22;;;1.90;;
73642;SDS011;61938;48.652;9.292;2023-07-13T04:21:14;7.53;;;2.00;;
73642;SDS011;61938;48.652;9.292;2023-07-13T04:23:40;4.72;;;1.95;;
73642;SDS011;61938;48.652;9.292;2023-07-13T04:26:06;4.10;;;2.05;;
73642;SDS011;61938;48.652;9.292;2023-07-13T04:28:32;9.52;;;1.92;;
73642;SDS011;61938;48.652;9.292;2023-07-13T04:30:58;7.65;;;1.95;;
73642;SDS011;61938;48.652;9.292;2023-07-13T04:33:23;6.78;;;1.95;;
73642;SDS011;61938;48.652;9.292;2023-07-13T04:35:52;13.32;;;3.00;;
73642;SDS011;61938;48.652;9.292;2023-07-13T04:38:21;7.10;;;2.15;;
73642;SDS011;61938;48.652;9.292;2023-07-13T04:40:53;2.85;;;1.48;;
73642;SDS011;61938;48.652;9.292;2023-07-13T04:43:24;2.70;;;1.65;;
73642;SDS011;61938;48.652;9.292;2023-07-13T04:45:51;8.73;;;2.00;;
73642;SDS011;61938;48.652;9.292;2023-07-13T04:48:17;4.03;;;1.73;;
73642;SDS011;61938;48.652;9.292;2023-07-13T04:50:42;8.73;;;1.75;;
73642;SDS011;61938;48.652;9.292;2023-07-13T04:53:08;2.85;;;1.52;;
73642;SDS011;61938;48.652;9.292;2023-07-13T04:55:35;8.35;;;1.70;;
73642;SDS011;61938;48.652;9.292;2023-07-13T04:58:01;5.15;;;2.00;;
73642;SDS011;61938;48.652;9.292;2023-07-13T05:00:27;5.30;;;2.42;;
73642;SDS011;61938;48.652;9.292;2023-07-13T05:02:54;4.70;;;2.25;;
73642;SDS011;61938;48.652;9.292;2023-07-13T05:05:20;8.27;;;2.40;;
73642;SDS011;61938;48.652;9.292;2023-07-13T05:07:46;4.50;;;2.00;;
73642;SDS011;61938;48.652;9.292;2023-07-13T05:10:11;8.95;;;1.92;;
73642;SDS011;61938;48.652;9.292;2023-07-13T05:12:37;8.15;;;2.63;;
73642;SDS011;61938;48.652;9.292;2023-07-13T05:15:03;6.20;;;1.80;;
73642;SDS011;61938;48.652;9.292;2023-07-13T05:17:29;4.55;;;2.00;;
73642;SDS011;61938;48.652;9.292;2023-07-13T05:19:54;4.18;;;1.95;;
73642;SDS011;61938;48.652;9.292;2023-07-13T05:22:20;5.97;;;1.80;;
73642;SDS011;61938;48.652;9.292;2023-07-13T05:24:46;5.10;;;1.98;;
73642;SDS011;61938;48.652;9.292;2023-07-13T05:27:11;8.38;;;2.15;;
73642;SDS011;61938;48.652;9.292;2023-07-13T05:29:37;3.42;;;1.92;;
73642;SDS011;61938;48.652;9.292;2023-07-13T05:32:02;6.97;;;1.83;;
73642;SDS011;61938;48.652;9.292;2023-07-13T05:34:28;6.10;;;2.65;;
73642;SDS011;61938;48.652;9.292;2023-07-13T05:36:54;6.43;;;2.58;;
73642;SDS011;61938;48.652;9.292;2023-07-13T05:39:20;8.73;;;2.45;;
73642;SDS011;61938;48.652;9.292;2023-07-13T05:41:45;6.00;;;2.03;;
73642;SDS011;61938;48.652;9.292;2023-07-13T05:44:11;8.85;;;2.10;;
73642;SDS011;61938;48.652;9.292;2023-07-13T05:46:36;6.18;;;2.85;;
73642;SDS011;61938;48.652;9.292;2023-07-13T05:49:02;11.30;;;2.85;;
73642;SDS011;61938;48.652;9.292;2023-07-13T05:51:28;6.10;;;2.20;;
73642;SDS011;61938;48.652;9.292;2023-07-13T05:53:53;7.70;;;2.28;;
73642;SDS011;61938;48.652;9.292;2023-07-13T05:56:19;6.78;;;2.13;;
73642;SDS011;61938;48.652;9.292;2023-07-13T05:58:45;7.22;;;2.30;;
73642;SDS011;61938;48.652;9.292;2023-07-13T06:01:11;5.50;;;2.15;;
73642;SDS011;61938;48.652;9.292;2023-07-13T06:03:38;7.78;;;2.28;;
73642;SDS011;61938;48.652;9.292;2023-07-13T06:06:05;5.28;;;2.47;;
73642;SDS011;61938;48.652;9.292;2023-07-13T06:08:32;5.80;;;2.70;;
73642;SDS011;61938;48.652;9.292;2023-07-13T06:11:02;8.10;;;2.53;;
73642;SDS011;61938;48.652;9.292;2023-07-13T06:13:29;15.10;;;2.78;;
73642;SDS011;61938;48.652;9.292;2023-07-13T06:15:54;3.38;;;2.20;;
73642;SDS011;61938;48.652;9.292;2023-07-13T06:18:19;7.00;;;2.42;;
73642;SDS011;61938;48.652;9.292;2023-07-13T06:20:45;7.70;;;2.28;;
73642;SDS011;61938;48.652;9.292;2023-07-13T06:23:10;7.18;;;2.70;;
73642;SDS011;61938;48.652;9.292;2023-07-13T06:25:36;6.18;;;2.33;;
73642;SDS011;61938;48.652;9.292;2023-07-13T06:28:01;11.73;;;1.98;;
73642;SDS011;61938;48.652;9.292;2023-07-13T06:30:27;8.13;;;2.20;;
73642;SDS011;61938;48.652;9.292;2023-07-13T06:32:52;5.68;;;2.20;;
73642;SDS011;61938;48.652;9.292;2023-07-13T06:35:18;5.00;;;2.03;;
73642;SDS011;61938;48.652;9.292;2023-07-13T06:37:44;4.80;;;2.03;;
73642;SDS011;61938;48.652;9.292;2023-07-13T06:40:09;7.28;;;2.78;;
73642;SDS011;61938;48.652;9.292;2023-07-13T06:42:35;4.68;;;2.35;;
73642;SDS011;61938;48.652;9.292;2023-07-13T06:45:01;10.25;;;2.10;;
73642;SDS011;61938;48.652;9.292;2023-07-13T06:47:26;5.65;;;1.50;;
73642;SDS011;61938;48.652;9.292;2023-07-13T06:49:52;8.50;;;2.40;;
73642;SDS011;61938;48.652;9.292;2023-07-13T06:52:17;8.23;;;2.45;;
73642;SDS011;61938;48.652;9.292;2023-07-13T06:54:43;4.93;;;1.85;;
73642;SDS011;61938;48.652;9.292;2023-07-13T06:57:09;5.97;;;2.40;;
73642;SDS011;61938;48.652;9.292;2023-07-13T06:59:34;10.15;;;2.35;;
73642;SDS011;61938;48.652;9.292;2023-07-13T07:02:00;5.22;;;1.90;;
73642;SDS011;61938;48.652;9.292;2023-07-13T07:04:25;4.43;;;1.98;;
73642;SDS011;61938;48.652;9.292;2023-07-13T07:06:51;7.43;;;1.90;;
73642;SDS011;61938;48.652;9.292;2023-07-13T07:09:17;10.40;;;2.05;;
73642;SDS011;61938;48.652;9.292;2023-07-13T07:11:42;4.57;;;1.83;;
73642;SDS011;61938;48.652;9.292;2023-07-13T07:14:08;4.85;;;1.63;;
73642;SDS011;61938;48.652;9.292;2023-07-13T07:16:33;5.38;;;1.58;;
73642;SDS011;61938;48.652;9.292;2023-07-13T07:18:59;4.95;;;2.22;;
73642;SDS011;61938;48.652;9.292;2023-07-13T07:21:24;10.40;;;2.08;;
73642;SDS011;61938;48.652;9.292;2023-07-13T07:23:51;5.38;;;1.70;;
73642;SDS011;61938;48.652;9.292;2023-07-13T07:26:17;7.30;;;1.70;;
73642;SDS011;61938;48.652;9.292;2023-07-13T07:28:42;7.72;;;1.67;;
73642;SDS011;61938;48.652;9.292;2023-07-13T07:31:08;5.88;;;1.42;;
73642;SDS011;61938;48.652;9.292;2023-07-13T07:33:34;5.32;;;1.77;;
73642;SDS011;61938;48.652;9.292;2023-07-13T07:36:00;3.90;;;1.80;;
73642;SDS011;61938;48.652;9.292;2023-07-13T07:38:26;7.43;;;2.10;;
73642;SDS011;61938;48.652;9.292;2023-07-13T07:40:52;4.32;;;1.20;;
73642;SDS011;61938;48.652;9.292;2023-07-13T07:43:17;9.05;;;1.58;;
73642;SDS011;61938;48.652;9.292;2023-07-13T07:45:44;7.15;;;1.55;;
73642;SDS011;61938;48.652;9.292;2023-07-13T07:48:10;3.85;;;1.48;;
73642;SDS011;61938;48.652;9.292;2023-07-13T07:50:35;9.00;;;2.13;;
73642;SDS011;61938;48.652;9.292;2023-07-13T07:53:02;8.65;;;1.70;;
73642;SDS011;61938;48.652;9.292;2023-07-13T07:55:28;10.98;;;2.00;;
73642;SDS011;61938;48.652;9.292;2023-07-13T07:57:54;7.18;;;1.63;;
73642;SDS011;61938;48.652;9.292;2023-07-13T08:00:21;2.50;;;1.45;;
73642;SDS011;61938;48.652;9.292;2023-07-13T08:02:46;9.98;;;2.05;;
73642;SDS011;61938;48.652;9.292;2023-07-13T08:05:13;5.68;;;1.65;;
73642;SDS011;61938;48.652;9.292;2023-07-13T08:07:39;4.60;;;1.70;;
73642;SDS011;61938;48.652;9.292;2023-07-13T08:10:05;5.95;;;1.90;;
73642;SDS011;61938;48.652;9.292;2023-07-13T08:12:35;7.35;;;2.10;;
73642;SDS011;61938;48.652;9.292;2023-07-13T08:15:02;7.88;;;1.73;;
73642;SDS011;61938;48.652;9.292;2023-07-13T08:17:28;3.92;;;1.70;;
73642;SDS011;61938;48.652;9.292;2023-07-13T08:19:53;2.10;;;1.40;;
73642;SDS011;61938;48.652;9.292;2023-07-13T08:22:19;4.25;;;1.65;;
73642;SDS011;61938;48.652;9.292;2023-07-13T08:24:44;5.32;;;1.70;;
73642;SDS011;61938;48.652;9.292;2023-07-13T08:27:10;3.10;;;1.42;;
73642;SDS011;61938;48.652;9.292;2023-07-13T08:29:37;5.55;;;1.60;;
73642;SDS011;61938;48.652;9.292;2023-07-13T08:32:04;5.72;;;1.85;;
73642;SDS011;61938;48.652;9.292;2023-07-13T08:34:31;9.18;;;1.88;;
73642;SDS011;61938;48.652;9.292;2023-07-13T08:36:56;4.93;;;1.70;;
73642;SDS011;61938;48.652;9.292;2023-07-13T08:39:22;7.95;;;1.70;;
73642;SDS011;61938;48.652;9.292;2023-07-13T08:41:47;6.68;;;2.03;;
73642;SDS011;61938;48.652;9.292;2023-07-13T08:44:25;3.90;;;1.58;;
73642;SDS011;61938;48.652;9.292;2023-07-13T08:47:01;3.80;;;1.30;;
73642;SDS011;61938;48.652;9.292;2023-07-13T08:49:27;2.15;;;1.35;;
73642;SDS011;61938;48.652;9.292;2023-07-13T08:51:58;3.22;;;1.48;;
73642;SDS011;61938;48.652;9.292;2023-07-13T08:54:40;4.47;;;1.20;;
73642;SDS011;61938;48.652;9.292;2023-07-13T08:57:11;9.93;;;1.27;;
73642;SDS011;61938;48.652;9.292;2023-07-13T08:59:39;3.78;;;1.58;;
73642;SDS011;61938;48.652;9.292;2023-07-13T09:10:09;5.90;;;1.45;;
73642;SDS011;61938;48.652;9.292;2023-07-13T09:12:45;5.28;;;1.40;;
73642;SDS011;61938;48.652;9.292;2023-07-13T09:15:20;9.15;;;2.17;;
73642;SDS011;61938;48.652;9.292;2023-07-13T09:17:50;7.35;;;1.45;;
73642;SDS011;61938;48.652;9.292;2023-07-13T09:20:21;5.05;;;2.08;;
73642;SDS011;61938;48.652;9.292;2023-07-13T09:22:51;3.95;;;1.40;;
73642;SDS011;61938;48.652;9.292;2023-07-13T09:25:29;5.85;;;1.33;;
73642;SDS011;61938;48.652;9.292;2023-07-13T09:28:18;2.42;;;1.38;;
73642;SDS011;61938;48.652;9.292;2023-07-13T09:33:30;13.50;;;1.77;;
73642;SDS011;61938;48.652;9.292;2023-07-13T09:35:56;8.80;;;1.90;;
73642;SDS011;61938;48.652;9.292;2023-07-13T09:38:23;6.70;;;1.50;;
73642;SDS011;61938;48.652;9.292;2023-07-13T09:43:34;10.18;;;2.03;;
73642;SDS011;61938;48.652;9.292;2023-07-13T09:45:59;3.88;;;1.48;;
73642;SDS011;61938;48.652;9.292;2023-07-13T09:48:25;5.78;;;1.80;;
73642;SDS011;61938;48.652;9.292;2023-07-13T09:51:01;3.78;;;1.55;;
73642;SDS011;61938;48.652;9.292;2023-07-13T09:53:37;5.03;;;1.50;;
73642;SDS011;61938;48.652;9.292;2023-07-13T09:56:03;3.80;;;1.27;;
73642;SDS011;61938;48.652;9.292;2023-07-13T09:58:30;2.13;;;1.20;;
73642;SDS011;61938;48.652;9.292;2023-07-13T10:01:00;4.80;;;1.77;;
73642;SDS011;61938;48.652;9.292;2023-07-13T10:03:31;6.53;;;1.55;;
73642;SDS011;61938;48.652;9.292;2023-07-13T10:06:11;6.15;;;1.70;;
73642;SDS011;61938;48.652;9.292;2023-07-13T10:08:45;6.45;;;1.50;;
73642;SDS011;61938;48.652;9.292;2023-07-13T10:11:18;6.00;;;1.30;;
73642;SDS011;61938;48.652;9.292;2023-07-13T10:13:54;6.65;;;1.45;;
73642;SDS011;61938;48.652;9.292;2023-07-13T10:16:21;13.40;;;1.60;;
73642;SDS011;61938;48.652;9.292;2023-07-13T10:18:55;3.10;;;1.20;;
73642;SDS011;61938;48.652;9.292;2023-07-13T10:21:58;6.68;;;1.60;;
73642;SDS011;61938;48.652;9.292;2023-07-13T10:24:25;4.10;;;1.08;;
73642;SDS011;61938;48.652;9.292;2023-07-13T10:27:02;4.72;;;1.40;;
73642;SDS011;61938;48.652;9.292;2023-07-13T10:29:38;3.08;;;1.23;;
73642;SDS011;61938;48.652;9.292;2023-07-13T10:32:09;4.40;;;1.30;;
73642;SDS011;61938;48.652;9.292;2023-07-13T10:34:37;4.47;;;1.30;;
73642;SDS011;61938;48.652;9.292;2023-07-13T10:37:03;6.13;;;1.73;;
73642;SDS011;61938;48.652;9.292;2023-07-13T10:39:33;9.55;;;1.77;;
73642;SDS011;61938;48.652;9.292;2023-07-13T10:42:01;4.45;;;1.58;;
73642;SDS011;61938;48.652;9.292;2023-07-13T10:44:30;5.65;;;1.55;;
73642;SDS011;61938;48.652;9.292;2023-07-13T10:47:01;11.32;;;1.67;;
73642;SDS011;61938;48.652;9.292;2023-07-13T10:49:31;17.10;;;1.70;;
73642;SDS011;61938;48.652;9.292;2023-07-13T10:51:58;3.42;;;1.40;;
73642;SDS011;61938;48.652;9.292;2023-07-13T10:59:43;4.65;;;1.75;;
73642;SDS011;61938;48.652;9.292;2023-07-13T11:02:21;5.65;;;1.73;;
73642;SDS011;61938;48.652;9.292;2023-07-13T11:04:51;9.52;;;1.67;;
73642;SDS011;61938;48.652;9.292;2023-07-13T11:07:28;3.70;;;1.60;;
73642;SDS011;61938;48.652;9.292;2023-07-13T11:09:57;7.60;;;1.60;;
73642;SDS011;61938;48.652;9.292;2023-07-13T11:17:25;4.13;;;1.42;;
73642;SDS011;61938;48.652;9.292;2023-07-13T11:20:19;11.02;;;2.30;;
73642;SDS011;61938;48.652;9.292;2023-07-13T11:22:50;3.07;;;1.10;;
73642;SDS011;61938;48.652;9.292;2023-07-13T11:25:36;5.03;;;1.42;;
73642;SDS011;61938;48.652;9.292;2023-07-13T11:33:24;4.57;;;1.58;;
73642;SDS011;61938;48.652;9.292;2023-07-13T11:38:40;2.83;;;1.30;;
73642;SDS011;61938;48.652;9.292;2023-07-13T11:41:19;6.07;;;1.88;;
73642;SDS011;61938;48.652;9.292;2023-07-13T11:44:04;4.05;;;1.52;;
73642;SDS011;61938;48.652;9.292;2023-07-13T11:46:32;4.90;;;1.50;;
73642;SDS011;61938;48.652;9.292;2023-07-13T11:48:58;4.07;;;1.60;;
73642;SDS011;61938;48.652;9.292;2023-07-13T11:51:29;5.00;;;1.63;;
73642;SDS011;61938;48.652;9.292;2023-07-13T11:53:59;4.15;;;1.70;;
73642;SDS011;61938;48.652;9.292;2023-07-13T11:56:29;2.50;;;1.33;;
73642;SDS011;61938;48.652;9.292;2023-07-13T11:58:56;6.60;;;1.67;;
73642;SDS011;61938;48.652;9.292;2023-07-13T12:01:27;6.82;;;1.80;;
73642;SDS011;61938;48.652;9.292;2023-07-13T12:03:57;7.82;;;1.70;;
73642;SDS011;61938;48.652;9.292;2023-07-13T12:06:31;3.67;;;2.00;;
73642;SDS011;61938;48.652;9.292;2023-07-13T12:09:02;6.63;;;1.67;;
73642;SDS011;61938;48.652;9.292;2023-07-13T12:11:37;4.72;;;1.45;;
73642;SDS011;61938;48.652;9.292;2023-07-13T12:14:05;7.07;;;1.65;;
73642;SDS011;61938;48.652;9.292;2023-07-13T12:16:31;4.88;;;1.38;;
73642;SDS011;61938;48.652;9.292;2023-07-13T12:18:58;4.50;;;1.45;;
73642;SDS011;61938;48.652;9.292;2023-07-13T12:21:30;3.30;;;1.52;;
73642;SDS011;61938;48.652;9.292;2023-07-13T12:23:57;2.95;;;1.63;;
73642;SDS011;61938;48.652;9.292;2023-07-13T12:26:23;6.18;;;1.40;;
73642;SDS011;61938;48.652;9.292;2023-07-13T12:28:51;3.72;;;1.80;;
73642;SDS011;61938;48.652;9.292;2023-07-13T12:31:25;4.97;;;1.45;;
73642;SDS011;61938;48.652;9.292;2023-07-13T12:33:59;5.50;;;1.50;;
73642;SDS011;61938;48.652;9.292;2023-07-13T12:36:33;4.30;;;1.40;;
73642;SDS011;61938;48.652;9.292;2023-07-13T12:39:03;6.95;;;2.03;;
73642;SDS011;61938;48.652;9.292;2023-07-13T12:41:37;7.43;;;1.63;;
73642;SDS011;61938;48.652;9.292;2023-07-13T12:44:04;3.70;;;1.50;;
73642;SDS011;61938;48.652;9.292;2023-07-13T12:46:34;3.78;;;1.60;;
73642;SDS011;61938;48.652;9.292;2023-07-13T12:48:59;9.55;;;1.70;;
73642;SDS011;61938;48.652;9.292;2023-07-13T12:51:25;8.98;;;1.80;;
73642;SDS011;61938;48.652;9.292;2023-07-13T12:53:56;3.35;;;1.35;;
73642;SDS011;61938;48.652;9.292;2023-07-13T12:56:29;6.90;;;2.35;;
73642;SDS011;61938;48.652;9.292;2023-07-13T12:59:00;1.90;;;1.30;;
73642;SDS011;61938;48.652;9.292;2023-07-13T13:01:29;7.70;;;1.77;;
73642;SDS011;61938;48.652;9.292;2023-07-13T13:04:00;5.22;;;1.20;;
73642;SDS011;61938;48.652;9.292;2023-07-13T13:06:33;3.97;;;1.30;;
73642;SDS011;61938;48.652;9.292;2023-07-13T13:09:01;3.33;;;1.52;;
73642;SDS011;61938;48.652;9.292;2023-07-13T13:11:27;6.43;;;1.40;;
73642;SDS011;61938;48.652;9.292;2023-07-13T13:13:54;9.65;;;2.30;;
73642;SDS011;61938;48.652;9.292;2023-07-13T13:16:23;8.77;;;1.70;;
73642;SDS011;61938;48.652;9.292;2023-07-13T13:18:57;6.25;;;1.77;;
73642;SDS011;61938;48.652;9.292;2023-07-13T13:21:24;6.00;;;1.90;;
73642;SDS011;61938;48.652;9.292;2023-07-13T13:23:51;3.47;;;1.40;;
73642;SDS011;61938;48.652;9.292;2023-07-13T13:26:18;4.40;;;1.48;;
73642;SDS011;61938;48.652;9.292;2023-07-13T13:28:44;2.90;;;1.42;;
73642;SDS011;61938;48.652;9.292;2023-07-13T13:31:12;5.43;;;1.50;;
73642;SDS011;61938;48.652;9.292;2023-07-13T13:33:42;8.13;;;1.73;;
73642;SDS011;61938;48.652;9.292;2023-07-13T13:36:14;5.70;;;1.40;;
73642;SDS011;61938;48.652;9.292;2023-07-13T13:38:44;6.55;;;2.10;;
73642;SDS011;61938;48.652;9.292;2023-07-13T13:41:11;6.40;;;2.00;;
73642;SDS011;61938;48.652;9.292;2023-07-13T13:43:38;9.93;;;2.13;;
73642;SDS011;61938;48.652;9.292;2023-07-13T13:46:11;4.68;;;1.60;;
73642;SDS011;61938;48.652;9.292;2023-07-13T13:48:40;7.07;;;1.50;;
73642;SDS011;61938;48.652;9.292;2023-07-13T13:51:12;3.22;;;1.55;;
73642;SDS011;61938;48.652;9.292;2023-07-13T13:53:43;4.80;;;1.80;;
73642;SDS011;61938;48.652;9.292;2023-07-13T13:56:10;3.20;;;1.67;;
73642;SDS011;61938;48.652;9.292;2023-07-13T13:58:36;3.78;;;1.90;;
73642;SDS011;61938;48.652;9.292;2023-07-13T14:01:02;11.88;;;1.50;;
73642;SDS011;61938;48.652;9.292;2023-07-13T14:03:27;7.20;;;1.70;;
73642;SDS011;61938;48.652;9.292;2023-07-13T14:05:53;5.95;;;2.85;;
73642;SDS011;61938;48.652;9.292;2023-07-13T14:08:22;5.25;;;1.90;;
73642;SDS011;61938;48.652;9.292;2023-07-13T14:10:48;4.50;;;1.90;;
73642;SDS011;61938;48.652;9.292;2023-07-13T14:13:16;5.18;;;2.03;;
73642;SDS011;61938;48.652;9.292;2023-07-13T14:15:47;7.57;;;2.05;;
73642;SDS011;61938;48.652;9.292;2023-07-13T14:18:13;4.57;;;1.73;;
73642;SDS011;61938;48.652;9.292;2023-07-13T14:20:43;3.88;;;1.50;;
73642;SDS011;61938;48.652;9.292;2023-07-13T14:23:09;4.65;;;1.50;;
73642;SDS011;61938;48.652;9.292;2023-07-13T14:25:35;6.97;;;2.00;;
73642;SDS011;61938;48.652;9.292;2023-07-13T14:28:04;9.77;;;1.80;;
73642;SDS011;61938;48.652;9.292;2023-07-13T14:30:50;4.13;;;1.83;;
73642;SDS011;61938;48.652;9.292;2023-07-13T14:33:16;2.83;;;1.52;;
73642;SDS011;61938;48.652;9.292;2023-07-13T14:35:42;9.68;;;2.08;;
73642;SDS011;61938;48.652;9.292;2023-07-13T14:38:11;12.27;;;2.78;;
73642;SDS011;61938;48.652;9.292;2023-07-13T14:40:40;5.28;;;2.08;;
73642;SDS011;61938;48.652;9.292;2023-07-13T14:43:09;5.05;;;1.60;;
73642;SDS011;61938;48.652;9.292;2023-07-13T14:45:40;6.50;;;1.95;;
73642;SDS011;61938;48.652;9.292;2023-07-13T14:48:20;5.90;;;1.83;;
73642;SDS011;61938;48.652;9.292;2023-07-13T14:50:49;4.00;;;2.10;;
73642;SDS011;61938;48.652;9.292;2023-07-13T14:53:19;6.70;;;1.95;;
73642;SDS011;61938;48.652;9.292;2023-07-13T14:55:45;4.60;;;2.20;;
73642;SDS011;61938;48.652;9.292;2023-07-13T14:58:11;12.38;;;2.10;;
73642;SDS011;61938;48.652;9.292;2023-07-13T15:00:38;4.10;;;1.63;;
73642;SDS011;61938;48.652;9.292;2023-07-13T15:03:05;7.63;;;1.70;;
73642;SDS011;61938;48.652;9.292;2023-07-13T15:05:38;3.88;;;1.75;;
73642;SDS011;61938;48.652;9.292;2023-07-13T15:08:05;3.47;;;1.23;;
73642;SDS011;61938;48.652;9.292;2023-07-13T15:10:31;7.43;;;1.77;;
73642;SDS011;61938;48.652;9.292;2023-07-13T15:13:17;14.63;;;2.13;;
73642;SDS011;61938;48.652;9.292;2023-07-13T15:15:48;3.80;;;1.83;;
73642;SDS011;61938;48.652;9.292;2023-07-13T15:18:17;5.50;;;1.67;;
73642;SDS011;61938;48.652;9.292;2023-07-13T15:20:46;5.38;;;1.60;;
73642;SDS011;61938;48.652;9.292;2023-07-13T15:23:13;4.38;;;1.50;;
73642;SDS011;61938;48.652;9.292;2023-07-13T15:25:40;4.63;;;2.28;;
73642;SDS011;61938;48.652;9.292;2023-07-13T15:28:07;2.13;;;1.55;;